createdAt,value
2022-09-18T00:01:39.270Z,11.10
2022-09-18T00:04:10.992Z,11.10
2022-09-18T00:06:41.242Z,11.10
2022-09-18T00:09:14.443Z,11.10
2022-09-18T00:11:46.898Z,11.10
2022-09-18T00:14:20.010Z,11.60
2022-09-18T00:16:48.487Z,11.20
2022-09-18T00:19:18.035Z,11.20
2022-09-18T00:21:49.742Z,11.20
2022-09-18T00:24:18.916Z,11.20
2022-09-18T00:26:48.075Z,11.20
2022-09-18T00:29:18.045Z,11.20
2022-09-18T00:31:46.595Z,11.10
2022-09-18T00:34:15.794Z,11.20
2022-09-18T00:36:43.933Z,11.10
2022-09-18T00:39:13.090Z,11.20
2022-09-18T00:41:44.059Z,11.20
2022-09-18T00:44:29.892Z,11.10
2022-09-18T00:47:29.038Z,11.20
2022-09-18T00:50:10.132Z,11.10
2022-09-18T00:52:54.478Z,11.20
2022-09-18T00:55:29.307Z,11.10
2022-09-18T00:58:00.632Z,11.10
2022-09-18T01:00:29.810Z,11.20
2022-09-18T01:02:59.559Z,11.10
2022-09-18T01:05:54.431Z,11.10
2022-09-18T01:08:56.705Z,11.10
2022-09-18T01:11:51.745Z,11.20
2022-09-18T01:14:41.562Z,11.20
2022-09-18T01:17:16.225Z,11.20
2022-09-18T01:20:41.465Z,11.10
2022-09-18T01:23:49.376Z,11.20
2022-09-18T01:26:50.147Z,11.10
2022-09-18T01:29:32.740Z,11.20
2022-09-18T01:32:28.063Z,11.20
2022-09-18T01:35:40.105Z,11.10
2022-09-18T01:38:27.357Z,11.20
2022-09-18T01:41:16.893Z,11.20
2022-09-18T01:43:45.832Z,11.20
2022-09-18T01:46:19.671Z,11.20
2022-09-18T01:48:59.941Z,11.10
2022-09-18T01:52:18.342Z,11.70
2022-09-18T01:54:50.237Z,11.20
2022-09-18T01:57:52.237Z,11.20
2022-09-18T02:00:21.919Z,11.20
2022-09-18T02:03:03.390Z,11.20
2022-09-18T02:06:03.281Z,11.20
2022-09-18T02:08:41.409Z,11.20
2022-09-18T02:11:13.323Z,11.10
2022-09-18T02:14:06.346Z,11.00
2022-09-18T02:17:11.489Z,11.10
2022-09-18T02:19:57.626Z,11.10
2022-09-18T02:22:30.547Z,11.10
2022-09-18T02:25:04.235Z,11.10
2022-09-18T02:27:34.491Z,11.10
2022-09-18T02:30:05.762Z,11.10
2022-09-18T02:32:39.578Z,11.10
2022-09-18T02:35:10.173Z,11.10
2022-09-18T02:37:47.898Z,11.10
2022-09-18T02:40:33.323Z,11.10
2022-09-18T02:43:40.419Z,11.10
2022-09-18T02:46:21.748Z,11.00
2022-09-18T02:49:17.242Z,11.60
2022-09-18T02:51:59.402Z,11.00
2022-09-18T02:54:41.240Z,11.00
2022-09-18T02:57:20.397Z,10.90
2022-09-18T02:59:56.094Z,11.00
2022-09-18T03:02:25.839Z,9.00
2022-09-18T03:04:54.412Z,11.00
2022-09-18T03:07:29.252Z,11.00
2022-09-18T03:09:59.387Z,11.00
2022-09-18T03:12:27.305Z,11.00
2022-09-18T03:14:55.250Z,11.10
2022-09-18T03:17:24.857Z,11.00
2022-09-18T03:19:54.129Z,11.00
2022-09-18T03:22:21.974Z,11.00
2022-09-18T03:25:35.537Z,11.10
2022-09-18T03:28:04.776Z,11.10
2022-09-18T03:30:37.783Z,11.10
2022-09-18T03:33:06.184Z,11.10
2022-09-18T03:35:34.342Z,11.10
2022-09-18T03:38:02.341Z,11.10
2022-09-18T03:40:32.169Z,11.10
2022-09-18T03:43:04.862Z,11.10
2022-09-18T03:45:32.905Z,11.00
2022-09-18T03:48:03.187Z,11.10
2022-09-18T03:50:31.405Z,11.00
2022-09-18T03:52:59.325Z,11.00
2022-09-18T03:55:47.080Z,11.00
2022-09-18T03:58:35.074Z,11.00
2022-09-18T04:01:13.863Z,11.00
2022-09-18T04:04:07.413Z,11.00
2022-09-18T04:07:00.933Z,11.00
2022-09-18T04:14:48.662Z,8.30
2022-09-18T04:17:16.638Z,11.00
2022-09-18T04:19:44.431Z,11.00
2022-09-18T04:22:12.423Z,11.00
2022-09-18T04:24:40.974Z,8.80
2022-09-18T04:27:09.044Z,11.00
2022-09-18T04:29:38.568Z,11.00
2022-09-18T04:34:36.491Z,11.00
2022-09-18T04:37:09.405Z,11.00
2022-09-18T04:39:38.381Z,11.00
2022-09-18T04:42:06.423Z,11.00
2022-09-18T04:44:34.469Z,11.00
2022-09-18T04:47:02.436Z,11.00
2022-09-18T04:49:30.334Z,11.00
2022-09-18T04:51:58.148Z,11.10
2022-09-18T04:54:26.225Z,11.10
2022-09-18T04:59:22.914Z,11.10
2022-09-18T05:01:55.246Z,11.10
2022-09-18T05:04:23.498Z,11.20
2022-09-18T05:06:57.813Z,11.20
2022-09-18T05:11:54.611Z,11.10
2022-09-18T05:16:56.720Z,11.20
2022-09-18T05:19:37.722Z,11.20
2022-09-18T05:27:14.308Z,11.20
2022-09-18T05:32:20.197Z,11.20
2022-09-18T05:34:50.202Z,11.20
2022-09-18T05:42:19.668Z,11.20
2022-09-18T05:44:47.694Z,11.20
2022-09-18T05:52:16.925Z,11.20
2022-09-18T06:02:14.596Z,11.20
2022-09-18T06:05:01.189Z,11.20
2022-09-18T06:07:29.034Z,11.20
2022-09-18T06:12:27.902Z,11.30
2022-09-18T06:17:27.906Z,11.30
2022-09-18T06:27:33.890Z,11.50
2022-09-18T06:37:30.421Z,11.60
2022-09-18T06:40:11.790Z,11.60
2022-09-18T06:46:05.769Z,11.60
2022-09-18T06:51:09.895Z,11.70
2022-09-18T07:04:03.707Z,11.90
2022-09-18T07:06:45.779Z,11.90
2022-09-18T07:24:51.619Z,12.30
2022-09-18T07:40:36.944Z,12.50
2022-09-18T07:43:10.956Z,12.60
2022-09-18T07:58:19.605Z,13.00
2022-09-18T08:01:03.348Z,12.90
2022-09-18T08:08:59.727Z,13.00
2022-09-18T08:11:56.225Z,13.10
2022-09-18T08:17:26.344Z,13.10
2022-09-18T08:22:55.892Z,13.30
2022-09-18T08:25:27.789Z,13.30
2022-09-18T08:28:04.893Z,13.20
2022-09-18T08:38:25.646Z,13.40
2022-09-18T08:41:26.669Z,13.50
2022-09-18T08:47:00.664Z,13.70
2022-09-18T08:49:45.218Z,13.90
2022-09-18T08:52:23.006Z,13.90
2022-09-18T08:55:31.136Z,13.90
2022-09-18T08:58:56.341Z,13.80
2022-09-18T09:02:09.664Z,13.90
2022-09-18T09:04:37.801Z,14.00
2022-09-18T09:07:39.878Z,14.10
2022-09-18T09:10:31.061Z,14.20
2022-09-18T09:13:17.973Z,14.20
2022-09-18T09:15:54.588Z,14.20
2022-09-18T09:19:13.487Z,14.10
2022-09-18T09:22:23.155Z,14.20
2022-09-18T09:25:06.329Z,14.40
2022-09-18T09:29:00.612Z,17.50
2022-09-18T09:32:21.248Z,14.50
2022-09-18T09:35:26.271Z,14.60
2022-09-18T09:38:42.684Z,14.70
2022-09-18T09:41:39.188Z,14.70
2022-09-18T09:44:49.857Z,14.70
2022-09-18T09:47:57.900Z,14.70
2022-09-18T09:53:04.745Z,14.90
2022-09-18T09:55:43.269Z,14.80
2022-09-18T09:58:35.968Z,14.90
2022-09-18T10:01:46.727Z,15.00
2022-09-18T10:04:51.894Z,15.10
2022-09-18T10:07:46.995Z,15.10
2022-09-18T10:10:41.745Z,15.00
2022-09-18T10:13:40.051Z,15.00
2022-09-18T10:16:22.280Z,15.10
2022-09-18T10:21:24.526Z,15.40
2022-09-18T10:24:08.433Z,15.30
2022-09-18T10:26:54.838Z,15.40
2022-09-18T10:31:59.083Z,15.60
2022-09-18T10:34:49.724Z,15.60
2022-09-18T10:40:05.429Z,16.30
2022-09-18T10:42:37.060Z,16.20
2022-09-18T10:45:30.803Z,16.50
2022-09-18T10:48:23.913Z,16.80
2022-09-18T10:51:00.990Z,16.80
2022-09-18T10:56:21.821Z,16.40
2022-09-18T11:01:27.702Z,16.30
2022-09-18T11:04:04.080Z,16.20
2022-09-18T11:06:37.650Z,16.20
2022-09-18T11:09:27.428Z,16.10
2022-09-18T11:14:33.535Z,16.20
2022-09-18T11:22:34.258Z,15.90
2022-09-18T11:25:15.453Z,15.70
2022-09-18T11:27:53.796Z,15.30
2022-09-18T11:30:28.051Z,15.30
2022-09-18T11:33:10.329Z,15.30
2022-09-18T11:35:46.772Z,15.10
2022-09-18T11:38:20.068Z,15.10
2022-09-18T11:40:55.516Z,15.10
2022-09-18T11:43:34.924Z,15.00
2022-09-18T11:46:47.768Z,15.10
2022-09-18T11:49:22.465Z,15.10
2022-09-18T11:51:58.382Z,15.10
2022-09-18T11:54:56.428Z,15.10
2022-09-18T11:57:40.144Z,15.10
2022-09-18T12:03:05.905Z,15.20
2022-09-18T12:05:59.053Z,15.30
2022-09-18T12:08:55.019Z,15.30
2022-09-18T12:11:51.320Z,15.20
2022-09-18T12:15:20.001Z,15.30
2022-09-18T12:18:03.720Z,15.20
2022-09-18T12:20:44.572Z,15.20
2022-09-18T12:23:23.975Z,15.20
2022-09-18T12:26:13.426Z,15.20
2022-09-18T12:29:19.038Z,15.10
2022-09-18T12:32:24.884Z,15.10
2022-09-18T12:35:39.663Z,15.10
2022-09-18T12:38:19.069Z,15.10
2022-09-18T12:41:28.860Z,15.10
2022-09-18T12:44:11.205Z,15.10
2022-09-18T12:47:02.324Z,15.10
2022-09-18T12:49:55.494Z,15.00
2022-09-18T12:55:27.837Z,15.10
2022-09-18T12:58:43.668Z,16.40
2022-09-18T13:01:50.304Z,15.10
2022-09-18T13:04:33.412Z,15.00
2022-09-18T13:07:46.972Z,15.10
2022-09-18T13:10:31.005Z,15.00
2022-09-18T13:13:09.533Z,15.00
2022-09-18T13:16:03.426Z,14.90
2022-09-18T13:21:30.110Z,14.90
2022-09-18T13:23:59.691Z,14.90
2022-09-18T13:26:32.373Z,14.80
2022-09-18T13:31:38.043Z,14.90
2022-09-18T13:34:18.371Z,14.90
2022-09-18T13:36:47.399Z,14.90
2022-09-18T13:41:53.245Z,14.90
2022-09-18T13:44:28.195Z,15.00
2022-09-18T13:47:09.950Z,14.90
2022-09-18T13:50:00.915Z,14.90
2022-09-18T13:52:35.028Z,14.90
2022-09-18T13:55:25.328Z,14.90
2022-09-18T13:58:31.154Z,14.90
2022-09-18T14:01:10.487Z,14.90
2022-09-18T14:03:42.366Z,14.90
2022-09-18T14:06:35.155Z,15.00
2022-09-18T14:09:55.434Z,15.00
2022-09-18T14:12:25.536Z,15.00
2022-09-18T14:15:21.144Z,14.90
2022-09-18T14:18:16.563Z,14.90
2022-09-18T14:20:52.493Z,14.90
2022-09-18T14:23:35.988Z,14.90
2022-09-18T14:26:31.174Z,14.80
2022-09-18T14:29:27.217Z,14.80
2022-09-18T14:31:58.131Z,14.80
2022-09-18T14:37:29.552Z,14.90
2022-09-18T14:39:59.367Z,14.80
2022-09-18T14:42:38.683Z,14.80
2022-09-18T14:45:13.008Z,14.80
2022-09-18T14:47:44.458Z,14.70
2022-09-18T14:50:35.064Z,14.40
2022-09-18T14:53:21.864Z,14.80
2022-09-18T14:55:56.155Z,14.70
2022-09-18T14:58:36.928Z,14.80
2022-09-18T15:01:19.130Z,14.80
2022-09-18T15:03:50.623Z,14.80
2022-09-18T15:06:45.308Z,14.80
2022-09-18T15:09:16.917Z,14.80
2022-09-18T15:12:01.821Z,14.70
2022-09-18T15:14:46.775Z,14.80
2022-09-18T15:17:25.264Z,14.80
2022-09-18T15:20:14.396Z,14.80
2022-09-18T15:25:20.692Z,14.80
2022-09-18T15:30:23.907Z,14.80
2022-09-18T15:35:30.061Z,14.70
2022-09-18T15:38:03.438Z,14.70
2022-09-18T15:40:36.069Z,14.60
2022-09-18T15:43:11.356Z,14.60
2022-09-18T15:48:39.675Z,14.50
2022-09-18T15:51:25.844Z,14.50
2022-09-18T15:54:12.739Z,14.50
2022-09-18T15:57:01.114Z,14.60
2022-09-18T15:59:37.085Z,14.40
2022-09-18T16:02:37.758Z,14.50
2022-09-18T16:05:14.963Z,14.50
2022-09-18T16:07:58.034Z,14.10
2022-09-18T16:10:35.066Z,14.40
2022-09-18T16:13:26.823Z,14.40
2022-09-18T16:16:24.425Z,14.30
2022-09-18T16:18:56.840Z,14.30
2022-09-18T16:21:28.090Z,14.30
2022-09-18T16:24:01.640Z,14.20
2022-09-18T16:26:35.973Z,15.80
2022-09-18T16:29:13.465Z,14.20
2022-09-18T16:34:21.592Z,14.30
2022-09-18T16:36:50.726Z,14.20
2022-09-18T16:39:25.292Z,14.20
2022-09-18T16:46:53.690Z,14.40
2022-09-18T16:49:26.522Z,14.30
2022-09-18T16:51:55.665Z,14.30
2022-09-18T16:54:24.172Z,13.90
2022-09-18T16:56:56.976Z,14.10
2022-09-18T16:59:30.377Z,13.90
2022-09-18T17:02:04.134Z,13.80
2022-09-18T17:04:34.151Z,13.80
2022-09-18T17:07:03.531Z,13.80
2022-09-18T17:09:32.664Z,13.80
2022-09-18T17:12:00.584Z,13.80
2022-09-18T17:19:24.789Z,13.70
2022-09-18T17:21:53.358Z,13.70
2022-09-18T17:24:25.772Z,13.60
2022-09-18T17:26:54.219Z,13.60
2022-09-18T17:29:22.643Z,13.70
2022-09-18T17:31:52.234Z,13.60
2022-09-18T17:34:22.198Z,13.60
2022-09-18T17:36:50.125Z,13.50
2022-09-18T17:39:21.373Z,13.50
2022-09-18T17:44:18.004Z,13.50
2022-09-18T17:46:51.300Z,13.50
2022-09-18T17:49:20.066Z,13.50
2022-09-18T17:51:49.528Z,13.50
2022-09-18T17:54:18.286Z,13.50
2022-09-18T17:59:15.616Z,13.50
2022-09-18T18:01:46.479Z,13.50
2022-09-18T18:04:16.193Z,14.90
2022-09-18T18:06:50.595Z,13.60
2022-09-18T18:09:19.315Z,13.50
2022-09-18T18:11:48.257Z,13.60
2022-09-18T18:24:19.063Z,13.60
2022-09-18T18:29:18.799Z,13.60
2022-09-18T18:31:49.235Z,13.50
2022-09-18T18:34:22.265Z,13.40
2022-09-18T18:36:50.608Z,13.40
2022-09-18T18:39:20.260Z,12.20
2022-09-18T18:41:49.852Z,13.30
2022-09-18T18:44:18.563Z,13.30
2022-09-18T18:49:16.261Z,13.20
2022-09-18T18:51:52.112Z,13.10
2022-09-18T18:54:22.074Z,13.00
2022-09-18T18:56:50.406Z,13.00
2022-09-18T18:59:19.891Z,13.00
2022-09-18T19:01:48.216Z,13.00
2022-09-18T19:04:19.239Z,13.00
2022-09-18T19:06:49.073Z,12.90
2022-09-18T19:09:22.608Z,12.90
2022-09-18T19:11:52.942Z,12.90
2022-09-18T19:14:29.127Z,12.90
2022-09-18T19:16:57.892Z,12.90
2022-09-18T19:19:28.408Z,12.80
2022-09-18T19:22:00.609Z,12.80
2022-09-18T19:24:30.117Z,12.90
2022-09-18T19:26:58.927Z,12.80
2022-09-18T19:29:29.525Z,12.80
2022-09-18T19:32:00.345Z,11.30
2022-09-18T19:39:24.735Z,12.60
2022-09-18T19:44:34.354Z,12.60
2022-09-18T19:47:16.490Z,12.60
2022-09-18T19:49:44.651Z,12.50
2022-09-18T19:52:21.198Z,12.60
2022-09-18T19:54:51.620Z,12.50
2022-09-18T19:57:20.870Z,13.50
2022-09-18T19:59:52.619Z,12.50
2022-09-18T20:02:21.786Z,12.50
2022-09-18T20:04:49.784Z,12.60
2022-09-18T20:07:17.691Z,12.50
2022-09-18T20:09:45.529Z,12.70
2022-09-18T20:17:11.316Z,12.80
2022-09-18T20:19:39.201Z,12.80
2022-09-18T20:24:35.156Z,12.90
2022-09-18T20:27:03.184Z,12.90
2022-09-18T20:29:31.230Z,12.80
2022-09-18T20:31:59.259Z,12.90
2022-09-18T20:34:27.927Z,12.90
2022-09-18T20:36:55.778Z,12.80
2022-09-18T20:39:23.573Z,12.70
2022-09-18T20:41:51.498Z,12.70
2022-09-18T20:49:18.329Z,12.30
2022-09-18T20:54:20.845Z,12.30
2022-09-18T20:56:49.080Z,12.20
2022-09-18T20:59:45.734Z,12.20
2022-09-18T21:02:17.776Z,12.10
2022-09-18T21:04:54.533Z,11.90
2022-09-18T21:07:41.580Z,11.80
2022-09-18T21:12:47.658Z,11.70
2022-09-18T21:15:15.584Z,11.80
2022-09-18T21:17:43.762Z,11.70
2022-09-18T21:20:12.180Z,11.60
2022-09-18T21:25:31.050Z,10.70
2022-09-18T21:27:59.435Z,10.20
2022-09-18T21:30:27.326Z,10.10
2022-09-18T21:35:23.868Z,10.20
2022-09-18T21:37:52.121Z,10.10
2022-09-18T21:42:48.350Z,10.20
2022-09-18T21:47:50.283Z,10.20
2022-09-18T21:50:19.269Z,10.10
2022-09-18T21:52:47.080Z,10.20
2022-09-18T21:55:14.992Z,10.20
2022-09-18T21:57:43.172Z,10.20
2022-09-18T22:00:12.431Z,10.20
2022-09-18T22:02:43.336Z,10.10
2022-09-18T22:05:12.321Z,10.20
2022-09-18T22:07:40.973Z,10.20
2022-09-18T22:10:09.445Z,10.20
2022-09-18T22:12:39.030Z,10.20
2022-09-18T22:15:07.804Z,10.20
2022-09-18T22:17:35.666Z,10.20
2022-09-18T22:20:03.989Z,10.20
2022-09-18T22:22:34.214Z,10.20
2022-09-18T22:25:03.292Z,10.10
2022-09-18T22:27:31.096Z,10.10
2022-09-18T22:29:59.009Z,10.00
2022-09-18T22:32:27.177Z,10.00
2022-09-18T22:34:55.960Z,10.00
2022-09-18T22:37:23.947Z,10.10
2022-09-18T22:39:51.907Z,10.10
2022-09-18T22:42:19.981Z,10.10
2022-09-18T22:44:48.002Z,10.10
2022-09-18T22:47:15.967Z,10.00
2022-09-18T22:49:43.877Z,9.90
2022-09-18T22:52:11.769Z,9.90
2022-09-18T22:54:39.713Z,9.80
2022-09-18T22:57:07.561Z,9.70
2022-09-18T22:59:35.614Z,9.70
2022-09-18T23:02:08.109Z,9.60
2022-09-18T23:04:36.755Z,9.60
2022-09-18T23:07:04.705Z,9.40
2022-09-18T23:09:32.642Z,9.40
2022-09-18T23:12:00.509Z,9.40
2022-09-18T23:14:31.271Z,9.40
2022-09-18T23:17:00.860Z,9.30
2022-09-18T23:19:34.351Z,9.30
2022-09-18T23:22:02.659Z,9.40
2022-09-18T23:29:31.968Z,9.20
2022-09-18T23:34:31.776Z,9.10
2022-09-18T23:37:00.663Z,9.10
2022-09-18T23:39:32.482Z,9.10
2022-09-18T23:42:02.721Z,9.10
2022-09-18T23:49:29.685Z,9.00
2022-09-18T23:54:31.920Z,9.10
2022-09-18T23:56:59.751Z,9.00
